sensor_id;sensor_type;location;lat;lon;timestamp;pressure;altitude;pressure_sealevel;temperature;humidity
70198;BME280;57582;-34.876;138.628;2023-02-14T00:00:24;100845;;;22.66;40.30
70198;BME280;57582;-34.876;138.628;2023-02-14T00:03:24;100848;;;22.97;40.27
70198;BME280;57582;-34.876;138.628;2023-02-14T00:06:24;100844;;;23.20;38.03
70198;BME280;57582;-34.876;138.628;2023-02-14T00:09:24;100832;;;23.27;38.58
70198;BME280;57582;-34.876;138.628;2023-02-14T00:12:24;100828;;;23.32;38.96
70198;BME280;57582;-34.876;138.628;2023-02-14T00:15:24;100817;;;23.60;38.83
70198;BME280;57582;-34.876;138.628;2023-02-14T00:18:24;100821;;;23.54;38.50
70198;BME280;57582;-34.876;138.628;2023-02-14T00:21:24;100819;;;23.53;38.23
70198;BME280;57582;-34.876;138.628;2023-02-14T00:24:24;100811;;;23.81;38.48
70198;BME280;57582;-34.876;138.628;2023-02-14T00:27:24;100814;;;24.10;37.50
70198;BME280;57582;-34.876;138.628;2023-02-14T00:30:24;100809;;;23.99;37.69
70198;BME280;57582;-34.876;138.628;2023-02-14T00:33:24;100811;;;24.23;37.60
70198;BME280;57582;-34.876;138.628;2023-02-14T00:36:24;100807;;;24.42;35.45
70198;BME280;57582;-34.876;138.628;2023-02-14T00:39:24;100809;;;24.64;35.94
70198;BME280;57582;-34.876;138.628;2023-02-14T00:42:24;100801;;;24.45;35.15
70198;BME280;57582;-34.876;138.628;2023-02-14T00:45:24;100797;;;24.26;35.28
70198;BME280;57582;-34.876;138.628;2023-02-14T00:48:24;100791;;;24.52;35.63
70198;BME280;57582;-34.876;138.628;2023-02-14T00:51:24;100792;;;24.60;35.11
70198;BME280;57582;-34.876;138.628;2023-02-14T00:54:25;100792;;;24.98;36.01
70198;BME280;57582;-34.876;138.628;2023-02-14T00:57:24;100777;;;25.28;34.89
70198;BME280;57582;-34.876;138.628;2023-02-14T01:00:24;100776;;;25.54;33.93
70198;BME280;57582;-34.876;138.628;2023-02-14T01:03:24;100771;;;25.62;34.39
70198;BME280;57582;-34.876;138.628;2023-02-14T01:06:24;100766;;;25.83;33.97
70198;BME280;57582;-34.876;138.628;2023-02-14T01:09:24;100768;;;26.04;33.23
70198;BME280;57582;-34.876;138.628;2023-02-14T01:12:24;100762;;;26.19;32.19
70198;BME280;57582;-34.876;138.628;2023-02-14T01:15:24;100754;;;26.30;32.18
70198;BME280;57582;-34.876;138.628;2023-02-14T01:18:24;100749;;;26.34;32.31
70198;BME280;57582;-34.876;138.628;2023-02-14T01:21:26;100748;;;26.46;32.87
70198;BME280;57582;-34.876;138.628;2023-02-14T01:24:24;100754;;;26.62;32.75
70198;BME280;57582;-34.876;138.628;2023-02-14T01:27:24;100750;;;26.85;31.30
70198;BME280;57582;-34.876;138.628;2023-02-14T01:30:24;100749;;;26.78;30.20
70198;BME280;57582;-34.876;138.628;2023-02-14T01:33:24;100733;;;26.28;30.47
70198;BME280;57582;-34.876;138.628;2023-02-14T01:36:25;100736;;;26.26;31.96
70198;BME280;57582;-34.876;138.628;2023-02-14T01:39:24;100734;;;26.46;31.20
70198;BME280;57582;-34.876;138.628;2023-02-14T01:42:24;100734;;;26.57;30.29
70198;BME280;57582;-34.876;138.628;2023-02-14T01:45:25;100725;;;26.50;30.76
70198;BME280;57582;-34.876;138.628;2023-02-14T01:48:24;100715;;;26.77;31.43
70198;BME280;57582;-34.876;138.628;2023-02-14T01:51:24;100718;;;26.78;28.52
70198;BME280;57582;-34.876;138.628;2023-02-14T01:54:24;100710;;;26.88;28.44
70198;BME280;57582;-34.876;138.628;2023-02-14T01:57:25;100702;;;27.10;27.58
70198;BME280;57582;-34.876;138.628;2023-02-14T02:00:24;100702;;;27.43;26.96
70198;BME280;57582;-34.876;138.628;2023-02-14T02:06:25;100683;;;27.77;26.46
70198;BME280;57582;-34.876;138.628;2023-02-14T02:12:24;100676;;;27.95;26.33
70198;BME280;57582;-34.876;138.628;2023-02-14T02:15:25;100677;;;28.23;26.81
70198;BME280;57582;-34.876;138.628;2023-02-14T02:21:31;100668;;;28.20;26.19
70198;BME280;57582;-34.876;138.628;2023-02-14T02:27:30;100660;;;28.12;27.55
70198;BME280;57582;-34.876;138.628;2023-02-14T02:36:27;100652;;;28.15;28.81
70198;BME280;57582;-34.876;138.628;2023-02-14T02:45:27;100644;;;28.98;25.76
70198;BME280;57582;-34.876;138.628;2023-02-14T02:48:25;100647;;;29.19;25.06
70198;BME280;57582;-34.876;138.628;2023-02-14T02:51:29;100642;;;29.43;24.94
70198;BME280;57582;-34.876;138.628;2023-02-14T02:57:26;100639;;;29.14;26.57
70198;BME280;57582;-34.876;138.628;2023-02-14T03:00:24;100639;;;29.09;24.47
70198;BME280;57582;-34.876;138.628;2023-02-14T03:03:24;100637;;;29.13;29.16
70198;BME280;57582;-34.876;138.628;2023-02-14T03:06:24;100625;;;29.19;29.27
70198;BME280;57582;-34.876;138.628;2023-02-14T03:12:30;100620;;;29.14;31.84
70198;BME280;57582;-34.876;138.628;2023-02-14T03:15:28;100613;;;29.06;31.42
70198;BME280;57582;-34.876;138.628;2023-02-14T03:18:43;100610;;;28.88;31.42
70198;BME280;57582;-34.876;138.628;2023-02-14T03:21:30;100608;;;28.75;31.12
70198;BME280;57582;-34.876;138.628;2023-02-14T03:24:27;100606;;;28.86;31.43
70198;BME280;57582;-34.876;138.628;2023-02-14T03:27:26;100605;;;28.79;31.25
70198;BME280;57582;-34.876;138.628;2023-02-14T03:36:32;100581;;;28.84;31.09
70198;BME280;57582;-34.876;138.628;2023-02-14T03:39:25;100578;;;28.80;31.55
70198;BME280;57582;-34.876;138.628;2023-02-14T03:42:26;100580;;;28.90;31.63
70198;BME280;57582;-34.876;138.628;2023-02-14T03:45:29;100565;;;28.89;32.79
70198;BME280;57582;-34.876;138.628;2023-02-14T03:51:24;100560;;;29.15;31.12
70198;BME280;57582;-34.876;138.628;2023-02-14T03:54:25;100548;;;29.34;30.42
70198;BME280;57582;-34.876;138.628;2023-02-14T03:57:27;100553;;;29.77;30.18
70198;BME280;57582;-34.876;138.628;2023-02-14T04:00:25;100552;;;30.13;29.40
70198;BME280;57582;-34.876;138.628;2023-02-14T04:03:24;100549;;;30.08;29.78
70198;BME280;57582;-34.876;138.628;2023-02-14T04:06:25;100552;;;30.00;29.42
70198;BME280;57582;-34.876;138.628;2023-02-14T04:09:25;100550;;;29.83;30.07
70198;BME280;57582;-34.876;138.628;2023-02-14T04:12:24;100549;;;29.83;29.93
70198;BME280;57582;-34.876;138.628;2023-02-14T04:15:24;100547;;;29.76;30.27
70198;BME280;57582;-34.876;138.628;2023-02-14T04:18:24;100538;;;29.81;30.05
70198;BME280;57582;-34.876;138.628;2023-02-14T04:21:24;100539;;;29.55;30.10
70198;BME280;57582;-34.876;138.628;2023-02-14T04:24:24;100536;;;29.58;30.17
70198;BME280;57582;-34.876;138.628;2023-02-14T04:27:24;100534;;;29.75;29.86
70198;BME280;57582;-34.876;138.628;2023-02-14T04:30:24;100534;;;29.94;29.45
70198;BME280;57582;-34.876;138.628;2023-02-14T04:33:24;100531;;;29.93;29.99
70198;BME280;57582;-34.876;138.628;2023-02-14T04:36:24;100536;;;29.93;30.10
70198;BME280;57582;-34.876;138.628;2023-02-14T04:39:24;100536;;;30.02;29.00
70198;BME280;57582;-34.876;138.628;2023-02-14T04:42:25;100528;;;29.92;29.72
70198;BME280;57582;-34.876;138.628;2023-02-14T04:45:25;100528;;;29.78;29.51
70198;BME280;57582;-34.876;138.628;2023-02-14T04:48:24;100524;;;29.79;29.71
70198;BME280;57582;-34.876;138.628;2023-02-14T04:51:24;100525;;;29.90;29.24
70198;BME280;57582;-34.876;138.628;2023-02-14T04:54:25;100531;;;29.90;28.97
70198;BME280;57582;-34.876;138.628;2023-02-14T04:57:25;100512;;;29.77;29.13
70198;BME280;57582;-34.876;138.628;2023-02-14T05:00:24;100517;;;29.77;29.27
70198;BME280;57582;-34.876;138.628;2023-02-14T05:03:24;100512;;;29.72;29.19
70198;BME280;57582;-34.876;138.628;2023-02-14T05:06:25;100511;;;29.78;29.19
70198;BME280;57582;-34.876;138.628;2023-02-14T05:09:25;100505;;;29.88;27.83
70198;BME280;57582;-34.876;138.628;2023-02-14T05:12:24;100512;;;29.87;27.67
70198;BME280;57582;-34.876;138.628;2023-02-14T05:15:24;100504;;;29.86;27.76
70198;BME280;57582;-34.876;138.628;2023-02-14T05:18:25;100507;;;29.89;28.53
70198;BME280;57582;-34.876;138.628;2023-02-14T05:21:26;100508;;;29.83;28.39
70198;BME280;57582;-34.876;138.628;2023-02-14T05:24:24;100498;;;29.95;28.09
70198;BME280;57582;-34.876;138.628;2023-02-14T05:27:24;100495;;;30.02;28.05
70198;BME280;57582;-34.876;138.628;2023-02-14T05:30:25;100501;;;30.16;27.25
70198;BME280;57582;-34.876;138.628;2023-02-14T05:33:25;100488;;;30.25;26.80
70198;BME280;57582;-34.876;138.628;2023-02-14T05:36:24;100489;;;30.21;26.44
70198;BME280;57582;-34.876;138.628;2023-02-14T05:39:24;100481;;;30.29;26.95
70198;BME280;57582;-34.876;138.628;2023-02-14T05:42:25;100477;;;30.35;26.56
70198;BME280;57582;-34.876;138.628;2023-02-14T05:45:25;100474;;;30.39;26.40
70198;BME280;57582;-34.876;138.628;2023-02-14T05:48:24;100478;;;30.24;26.73
70198;BME280;57582;-34.876;138.628;2023-02-14T05:51:24;100483;;;30.29;26.68
70198;BME280;57582;-34.876;138.628;2023-02-14T05:54:25;100474;;;30.13;27.26
70198;BME280;57582;-34.876;138.628;2023-02-14T05:57:25;100479;;;30.23;27.36
70198;BME280;57582;-34.876;138.628;2023-02-14T06:00:24;100476;;;30.26;26.94
70198;BME280;57582;-34.876;138.628;2023-02-14T06:03:24;100473;;;30.31;26.31
70198;BME280;57582;-34.876;138.628;2023-02-14T06:06:25;100470;;;30.51;26.89
70198;BME280;57582;-34.876;138.628;2023-02-14T06:09:25;100471;;;30.53;26.82
70198;BME280;57582;-34.876;138.628;2023-02-14T06:12:24;100462;;;30.53;25.83
70198;BME280;57582;-34.876;138.628;2023-02-14T06:15:24;100464;;;30.48;25.64
70198;BME280;57582;-34.876;138.628;2023-02-14T06:18:25;100464;;;30.24;25.74
70198;BME280;57582;-34.876;138.628;2023-02-14T06:21:25;100454;;;30.14;26.28
70198;BME280;57582;-34.876;138.628;2023-02-14T06:24:24;100448;;;30.18;26.01
70198;BME280;57582;-34.876;138.628;2023-02-14T06:27:24;100456;;;30.16;26.12
70198;BME280;57582;-34.876;138.628;2023-02-14T06:30:25;100455;;;30.23;25.88
70198;BME280;57582;-34.876;138.628;2023-02-14T06:33:25;100447;;;30.27;27.26
70198;BME280;57582;-34.876;138.628;2023-02-14T06:36:24;100442;;;30.36;27.63
70198;BME280;57582;-34.876;138.628;2023-02-14T06:39:24;100440;;;30.53;27.04
70198;BME280;57582;-34.876;138.628;2023-02-14T06:42:25;100440;;;30.64;26.78
70198;BME280;57582;-34.876;138.628;2023-02-14T06:45:25;100434;;;30.77;26.68
70198;BME280;57582;-34.876;138.628;2023-02-14T06:48:24;100431;;;30.88;26.17
70198;BME280;57582;-34.876;138.628;2023-02-14T06:51:24;100428;;;30.90;26.38
70198;BME280;57582;-34.876;138.628;2023-02-14T06:54:25;100423;;;31.01;26.19
70198;BME280;57582;-34.876;138.628;2023-02-14T06:57:25;100426;;;31.04;26.24
70198;BME280;57582;-34.876;138.628;2023-02-14T07:00:24;100422;;;31.02;26.47
70198;BME280;57582;-34.876;138.628;2023-02-14T07:03:25;100426;;;30.80;26.73
70198;BME280;57582;-34.876;138.628;2023-02-14T07:06:25;100413;;;30.89;27.01
70198;BME280;57582;-34.876;138.628;2023-02-14T07:09:25;100415;;;30.91;27.15
70198;BME280;57582;-34.876;138.628;2023-02-14T07:12:24;100423;;;31.09;26.81
70198;BME280;57582;-34.876;138.628;2023-02-14T07:15:24;100412;;;31.06;26.69
70198;BME280;57582;-34.876;138.628;2023-02-14T07:18:25;100402;;;30.86;27.25
70198;BME280;57582;-34.876;138.628;2023-02-14T07:21:25;100405;;;30.91;26.81
70198;BME280;57582;-34.876;138.628;2023-02-14T07:24:24;100401;;;30.90;27.18
70198;BME280;57582;-34.876;138.628;2023-02-14T07:27:24;100393;;;30.79;27.18
70198;BME280;57582;-34.876;138.628;2023-02-14T07:30:25;100396;;;30.53;27.57
70198;BME280;57582;-34.876;138.628;2023-02-14T07:33:25;100399;;;30.52;27.96
70198;BME280;57582;-34.876;138.628;2023-02-14T07:36:25;100391;;;30.47;27.81
70198;BME280;57582;-34.876;138.628;2023-02-14T07:39:25;100391;;;30.54;27.88
70198;BME280;57582;-34.876;138.628;2023-02-14T07:42:25;100385;;;30.55;27.82
70198;BME280;57582;-34.876;138.628;2023-02-14T07:45:25;100383;;;30.59;28.15
70198;BME280;57582;-34.876;138.628;2023-02-14T07:48:25;100383;;;30.54;28.59
70198;BME280;57582;-34.876;138.628;2023-02-14T07:51:25;100380;;;30.64;29.18
70198;BME280;57582;-34.876;138.628;2023-02-14T07:54:25;100376;;;30.52;29.77
70198;BME280;57582;-34.876;138.628;2023-02-14T07:57:25;100370;;;30.22;30.39
70198;BME280;57582;-34.876;138.628;2023-02-14T08:00:25;100374;;;30.21;30.65
70198;BME280;57582;-34.876;138.628;2023-02-14T08:03:25;100375;;;30.09;30.67
70198;BME280;57582;-34.876;138.628;2023-02-14T08:06:25;100378;;;30.19;30.61
70198;BME280;57582;-34.876;138.628;2023-02-14T08:09:25;100376;;;30.18;30.34
70198;BME280;57582;-34.876;138.628;2023-02-14T08:12:25;100365;;;30.06;30.26
70198;BME280;57582;-34.876;138.628;2023-02-14T08:16:10;100374;;;30.16;29.97
70198;BME280;57582;-34.876;138.628;2023-02-14T08:18:35;100369;;;30.03;29.87
70198;BME280;57582;-34.876;138.628;2023-02-14T08:21:34;100379;;;29.90;30.10
70198;BME280;57582;-34.876;138.628;2023-02-14T08:24:33;100381;;;29.53;30.29
70198;BME280;57582;-34.876;138.628;2023-02-14T08:27:33;100378;;;29.34;30.22
70198;BME280;57582;-34.876;138.628;2023-02-14T08:30:35;100388;;;29.16;30.68
70198;BME280;57582;-34.876;138.628;2023-02-14T08:33:35;100391;;;29.08;31.31
70198;BME280;57582;-34.876;138.628;2023-02-14T08:36:33;100390;;;29.01;31.52
70198;BME280;57582;-34.876;138.628;2023-02-14T08:39:33;100382;;;28.84;31.90
70198;BME280;57582;-34.876;138.628;2023-02-14T08:42:34;100382;;;28.86;32.17
70198;BME280;57582;-34.876;138.628;2023-02-14T08:45:34;100384;;;28.82;32.26
70198;BME280;57582;-34.876;138.628;2023-02-14T08:48:34;100395;;;28.70;31.92
70198;BME280;57582;-34.876;138.628;2023-02-14T08:51:33;100404;;;28.60;32.12
70198;BME280;57582;-34.876;138.628;2023-02-14T08:54:34;100407;;;28.50;32.28
70198;BME280;57582;-34.876;138.628;2023-02-14T08:57:34;100407;;;28.45;32.09
70198;BME280;57582;-34.876;138.628;2023-02-14T09:00:34;100406;;;28.33;31.06
70198;BME280;57582;-34.876;138.628;2023-02-14T09:03:33;100407;;;28.19;30.38
70198;BME280;57582;-34.876;138.628;2023-02-14T09:06:36;100411;;;28.14;30.40
70198;BME280;57582;-34.876;138.628;2023-02-14T09:09:34;100411;;;28.09;30.51
70198;BME280;57582;-34.876;138.628;2023-02-14T09:12:34;100407;;;28.09;30.48
70198;BME280;57582;-34.876;138.628;2023-02-14T09:15:34;100414;;;27.95;30.68
70198;BME280;57582;-34.876;138.628;2023-02-14T09:18:34;100405;;;27.85;30.75
70198;BME280;57582;-34.876;138.628;2023-02-14T09:21:34;100415;;;27.69;31.30
70198;BME280;57582;-34.876;138.628;2023-02-14T09:24:34;100414;;;27.63;31.13
70198;BME280;57582;-34.876;138.628;2023-02-14T09:27:34;100410;;;27.61;31.31
70198;BME280;57582;-34.876;138.628;2023-02-14T09:30:34;100412;;;27.45;31.43
70198;BME280;57582;-34.876;138.628;2023-02-14T09:33:34;100415;;;27.27;31.63
70198;BME280;57582;-34.876;138.628;2023-02-14T09:36:34;100414;;;26.97;31.87
70198;BME280;57582;-34.876;138.628;2023-02-14T09:39:34;100410;;;27.02;32.05
70198;BME280;57582;-34.876;138.628;2023-02-14T09:48:34;100411;;;26.74;32.52
70198;BME280;57582;-34.876;138.628;2023-02-14T09:51:34;100407;;;26.64;32.75
70198;BME280;57582;-34.876;138.628;2023-02-14T09:54:34;100405;;;26.26;33.20
70198;BME280;57582;-34.876;138.628;2023-02-14T10:00:36;100414;;;25.95;33.84
70198;BME280;57582;-34.876;138.628;2023-02-14T10:13:29;100410;;;25.62;34.39
70198;BME280;57582;-34.876;138.628;2023-02-14T10:15:36;100413;;;25.64;34.55
70198;BME280;57582;-34.876;138.628;2023-02-14T10:18:39;100409;;;25.45;34.62
70198;BME280;57582;-34.876;138.628;2023-02-14T10:21:37;100407;;;25.24;35.03
70198;BME280;57582;-34.876;138.628;2023-02-14T10:24:36;100388;;;25.10;35.13
70198;BME280;57582;-34.876;138.628;2023-02-14T10:27:35;100416;;;25.15;35.10
70198;BME280;57582;-34.876;138.628;2023-02-14T10:30:36;100418;;;25.29;35.10
70198;BME280;57582;-34.876;138.628;2023-02-14T10:33:34;100416;;;25.39;34.88
70198;BME280;57582;-34.876;138.628;2023-02-14T10:39:38;100423;;;25.60;34.39
70198;BME280;57582;-34.876;138.628;2023-02-14T10:48:41;100437;;;25.17;34.79
70198;BME280;57582;-34.876;138.628;2023-02-14T10:54:35;100439;;;25.20;34.60
70198;BME280;57582;-34.876;138.628;2023-02-14T10:57:36;100446;;;25.17;34.19
70198;BME280;57582;-34.876;138.628;2023-02-14T11:00:36;100448;;;24.92;34.62
70198;BME280;57582;-34.876;138.628;2023-02-14T11:03:34;100443;;;24.82;34.36
70198;BME280;57582;-34.876;138.628;2023-02-14T11:06:34;100445;;;24.90;34.02
70198;BME280;57582;-34.876;138.628;2023-02-14T11:09:34;100449;;;24.94;33.99
70198;BME280;57582;-34.876;138.628;2023-02-14T11:12:35;100453;;;24.88;33.90
70198;BME280;57582;-34.876;138.628;2023-02-14T11:15:34;100462;;;24.93;33.81
70198;BME280;57582;-34.876;138.628;2023-02-14T11:18:35;100454;;;25.05;33.75
70198;BME280;57582;-34.876;138.628;2023-02-14T11:21:38;100456;;;25.17;33.70
70198;BME280;57582;-34.876;138.628;2023-02-14T11:24:35;100460;;;25.26;33.56
70198;BME280;57582;-34.876;138.628;2023-02-14T11:27:34;100472;;;25.33;33.36
70198;BME280;57582;-34.876;138.628;2023-02-14T11:30:37;100474;;;25.36;33.22
70198;BME280;57582;-34.876;138.628;2023-02-14T11:33:41;100474;;;25.34;33.04
70198;BME280;57582;-34.876;138.628;2023-02-14T11:36:38;100469;;;25.14;32.72
70198;BME280;57582;-34.876;138.628;2023-02-14T11:39:34;100474;;;25.07;33.10
70198;BME280;57582;-34.876;138.628;2023-02-14T11:42:43;100476;;;24.73;33.28
70198;BME280;57582;-34.876;138.628;2023-02-14T11:45:35;100479;;;24.30;33.71
70198;BME280;57582;-34.876;138.628;2023-02-14T11:48:34;100485;;;24.12;34.03
70198;BME280;57582;-34.876;138.628;2023-02-14T11:51:35;100481;;;23.74;34.76
70198;BME280;57582;-34.876;138.628;2023-02-14T11:54:35;100485;;;23.83;34.71
70198;BME280;57582;-34.876;138.628;2023-02-14T11:57:34;100485;;;23.82;34.55
70198;BME280;57582;-34.876;138.628;2023-02-14T12:00:36;100488;;;23.72;34.62
70198;BME280;57582;-34.876;138.628;2023-02-14T12:03:38;100485;;;23.62;34.48
70198;BME280;57582;-34.876;138.628;2023-02-14T12:06:34;100476;;;23.65;34.31
70198;BME280;57582;-34.876;138.628;2023-02-14T12:09:34;100471;;;23.61;34.11
70198;BME280;57582;-34.876;138.628;2023-02-14T12:12:35;100486;;;23.54;34.31
70198;BME280;57582;-34.876;138.628;2023-02-14T12:21:43;100464;;;23.57;34.27
70198;BME280;57582;-34.876;138.628;2023-02-14T12:24:37;100461;;;23.46;34.30
70198;BME280;57582;-34.876;138.628;2023-02-14T12:27:51;100459;;;23.44;34.47
70198;BME280;57582;-34.876;138.628;2023-02-14T12:30:34;100454;;;23.48;34.48
70198;BME280;57582;-34.876;138.628;2023-02-14T12:33:34;100453;;;23.44;34.80
70198;BME280;57582;-34.876;138.628;2023-02-14T12:37:00;100457;;;23.33;34.88
70198;BME280;57582;-34.876;138.628;2023-02-14T12:42:39;100457;;;23.23;36.08
70198;BME280;57582;-34.876;138.628;2023-02-14T12:54:39;100446;;;23.26;35.23
70198;BME280;57582;-34.876;138.628;2023-02-14T12:57:44;100448;;;23.35;35.16
70198;BME280;57582;-34.876;138.628;2023-02-14T13:00:54;100448;;;23.19;35.53
70198;BME280;57582;-34.876;138.628;2023-02-14T13:03:41;100440;;;23.14;35.76
70198;BME280;57582;-34.876;138.628;2023-02-14T13:06:35;100432;;;23.23;35.72
70198;BME280;57582;-34.876;138.628;2023-02-14T13:09:52;100431;;;23.21;35.80
70198;BME280;57582;-34.876;138.628;2023-02-14T13:15:40;100422;;;23.19;35.91
70198;BME280;57582;-34.876;138.628;2023-02-14T13:21:34;100421;;;23.18;35.97
70198;BME280;57582;-34.876;138.628;2023-02-14T13:24:38;100423;;;23.19;35.88
70198;BME280;57582;-34.876;138.628;2023-02-14T13:27:36;100421;;;23.13;36.07
70198;BME280;57582;-34.876;138.628;2023-02-14T13:30:35;100413;;;22.98;36.06
70198;BME280;57582;-34.876;138.628;2023-02-14T13:33:36;100413;;;22.83;36.46
70198;BME280;57582;-34.876;138.628;2023-02-14T13:36:34;100411;;;22.65;36.76
70198;BME280;57582;-34.876;138.628;2023-02-14T13:39:36;100401;;;22.59;36.86
70198;BME280;57582;-34.876;138.628;2023-02-14T13:42:51;100402;;;22.58;37.10
70198;BME280;57582;-34.876;138.628;2023-02-14T13:48:35;100396;;;22.53;37.29
70198;BME280;57582;-34.876;138.628;2023-02-14T13:54:39;100390;;;22.56;37.43
70198;BME280;57582;-34.876;138.628;2023-02-14T13:57:35;100395;;;22.57;37.49
70198;BME280;57582;-34.876;138.628;2023-02-14T14:00:37;100389;;;22.53;37.53
70198;BME280;57582;-34.876;138.628;2023-02-14T14:07:29;100393;;;22.57;37.56
70198;BME280;57582;-34.876;138.628;2023-02-14T14:12:35;100377;;;22.58;37.46
70198;BME280;57582;-34.876;138.628;2023-02-14T14:15:34;100384;;;22.52;37.45
70198;BME280;57582;-34.876;138.628;2023-02-14T14:18:36;100382;;;22.48;37.57
70198;BME280;57582;-34.876;138.628;2023-02-14T14:21:36;100381;;;22.52;37.60
70198;BME280;57582;-34.876;138.628;2023-02-14T14:24:38;100380;;;22.46;37.63
70198;BME280;57582;-34.876;138.628;2023-02-14T14:27:35;100378;;;22.35;37.74
70198;BME280;57582;-34.876;138.628;2023-02-14T14:30:34;100378;;;22.30;37.98
70198;BME280;57582;-34.876;138.628;2023-02-14T14:33:34;100377;;;22.24;38.10
70198;BME280;57582;-34.876;138.628;2023-02-14T14:36:35;100372;;;22.22;38.19
70198;BME280;57582;-34.876;138.628;2023-02-14T14:39:35;100359;;;22.14;38.44
70198;BME280;57582;-34.876;138.628;2023-02-14T14:42:35;100357;;;22.18;38.42
70198;BME280;57582;-34.876;138.628;2023-02-14T14:45:34;100355;;;22.24;38.12
70198;BME280;57582;-34.876;138.628;2023-02-14T14:48:39;100357;;;22.21;38.14
70198;BME280;57582;-34.876;138.628;2023-02-14T14:51:34;100351;;;22.19;38.20
70198;BME280;57582;-34.876;138.628;2023-02-14T14:54:34;100355;;;22.34;38.02
70198;BME280;57582;-34.876;138.628;2023-02-14T14:57:38;100350;;;22.48;37.73
70198;BME280;57582;-34.876;138.628;2023-02-14T15:00:36;100350;;;22.38;37.55
70198;BME280;57582;-34.876;138.628;2023-02-14T15:03:34;100341;;;22.31;37.21
70198;BME280;57582;-34.876;138.628;2023-02-14T15:06:34;100337;;;22.22;37.09
70198;BME280;57582;-34.876;138.628;2023-02-14T15:09:34;100338;;;22.21;36.82
70198;BME280;57582;-34.876;138.628;2023-02-14T15:12:34;100327;;;22.31;36.60
70198;BME280;57582;-34.876;138.628;2023-02-14T15:15:34;100321;;;22.32;36.36
70198;BME280;57582;-34.876;138.628;2023-02-14T15:18:35;100315;;;22.30;36.50
70198;BME280;57582;-34.876;138.628;2023-02-14T15:21:34;100306;;;22.33;36.31
70198;BME280;57582;-34.876;138.628;2023-02-14T15:24:36;100304;;;22.30;36.22
70198;BME280;57582;-34.876;138.628;2023-02-14T15:27:35;100296;;;22.37;36.08
70198;BME280;57582;-34.876;138.628;2023-02-14T15:30:35;100294;;;22.37;36.17
70198;BME280;57582;-34.876;138.628;2023-02-14T15:33:34;100300;;;22.39;36.12
70198;BME280;57582;-34.876;138.628;2023-02-14T15:36:34;100298;;;22.39;36.13
70198;BME280;57582;-34.876;138.628;2023-02-14T15:39:35;100289;;;22.36;36.08
70198;BME280;57582;-34.876;138.628;2023-02-14T15:42:38;100287;;;22.35;36.26
70198;BME280;57582;-34.876;138.628;2023-02-14T15:45:34;100286;;;22.34;36.23
70198;BME280;57582;-34.876;138.628;2023-02-14T15:48:37;100280;;;22.26;36.43
70198;BME280;57582;-34.876;138.628;2023-02-14T15:51:34;100281;;;22.20;36.55
70198;BME280;57582;-34.876;138.628;2023-02-14T15:54:36;100280;;;22.26;36.66
70198;BME280;57582;-34.876;138.628;2023-02-14T15:57:34;100282;;;22.19;36.78
70198;BME280;57582;-34.876;138.628;2023-02-14T16:00:34;100289;;;22.13;36.78
70198;BME280;57582;-34.876;138.628;2023-02-14T16:03:35;100287;;;22.10;37.01
70198;BME280;57582;-34.876;138.628;2023-02-14T16:06:36;100289;;;22.04;37.22
70198;BME280;57582;-34.876;138.628;2023-02-14T16:09:34;100281;;;21.98;37.45
70198;BME280;57582;-34.876;138.628;2023-02-14T16:12:35;100290;;;21.98;37.56
70198;BME280;57582;-34.876;138.628;2023-02-14T16:15:35;100277;;;21.92;37.73
70198;BME280;57582;-34.876;138.628;2023-02-14T16:18:38;100272;;;21.89;37.83
70198;BME280;57582;-34.876;138.628;2023-02-14T16:21:34;100268;;;21.83;38.10
70198;BME280;57582;-34.876;138.628;2023-02-14T16:24:35;100271;;;21.80;38.30
70198;BME280;57582;-34.876;138.628;2023-02-14T16:27:34;100266;;;21.67;38.51
70198;BME280;57582;-34.876;138.628;2023-02-14T16:30:35;100265;;;21.65;38.66
70198;BME280;57582;-34.876;138.628;2023-02-14T16:33:36;100258;;;21.54;38.84
70198;BME280;57582;-34.876;138.628;2023-02-14T16:36:35;100255;;;21.50;38.89
70198;BME280;57582;-34.876;138.628;2023-02-14T16:39:34;100250;;;21.50;38.98
70198;BME280;57582;-34.876;138.628;2023-02-14T16:42:34;100252;;;21.48;38.91
70198;BME280;57582;-34.876;138.628;2023-02-14T16:45:34;100255;;;21.48;38.79
70198;BME280;57582;-34.876;138.628;2023-02-14T16:48:35;100248;;;21.43;38.77
70198;BME280;57582;-34.876;138.628;2023-02-14T16:51:35;100253;;;21.46;38.70
70198;BME280;57582;-34.876;138.628;2023-02-14T16:54:35;100247;;;21.42;38.68
70198;BME280;57582;-34.876;138.628;2023-02-14T16:57:36;100247;;;21.42;38.65
70198;BME280;57582;-34.876;138.628;2023-02-14T17:00:35;100242;;;21.36;38.64
70198;BME280;57582;-34.876;138.628;2023-02-14T17:03:35;100240;;;21.38;38.60
70198;BME280;57582;-34.876;138.628;2023-02-14T17:06:37;100236;;;21.42;38.44
70198;BME280;57582;-34.876;138.628;2023-02-14T17:09:37;100238;;;21.42;38.34
70198;BME280;57582;-34.876;138.628;2023-02-14T17:12:37;100238;;;21.40;38.34
70198;BME280;57582;-34.876;138.628;2023-02-14T17:15:34;100228;;;21.37;38.30
70198;BME280;57582;-34.876;138.628;2023-02-14T17:18:35;100237;;;21.36;38.27
70198;BME280;57582;-34.876;138.628;2023-02-14T17:21:34;100236;;;21.35;38.32
70198;BME280;57582;-34.876;138.628;2023-02-14T17:24:35;100232;;;21.33;38.29